Time;durP1;ratioP1;P1;durP2;ratioP2;P2;SDS_P1;SDS_P2;PMS_P1;PMS_P2;Temp;Humidity;BMP_temperature;BMP_pressure;BME280_temperature;BME280_humidity;BME280_pressure;Samples;Min_cycle;Max_cycle;Signal;HPM_P1;HPM_P2
2021/12/13 00:00:38;;;;;;;;;;;;;;;0.96;100.00;101352.81;4992345;28;20050;-81
2021/12/13 00:03:14;;;;;;;107.82;99.47;;;;;;;0.88;100.00;101357.84;4991029;28;19925;-80
2021/12/13 00:05:51;;;;;;;107.93;99.40;;;;;;;0.88;100.00;101356.06;4995343;28;20054;-80
2021/12/13 00:08:20;;;;;;;117.30;108.60;;;;;;;0.85;100.00;101356.31;4994958;28;20058;-79
2021/12/13 00:10:55;;;;;;;106.28;98.28;;;;;;;0.66;100.00;101350.94;4988113;28;20073;-82
2021/12/13 00:13:25;;;;;;;97.18;89.55;;;;;;;0.84;100.00;101352.03;4987904;28;20074;-82
2021/12/13 00:15:57;;;;;;;98.75;91.35;;;;;;;0.87;100.00;101351.78;4991912;28;20112;-82
2021/12/13 00:18:28;;;;;;;97.47;90.00;;;;;;;0.87;100.00;101349.16;4993512;28;20085;-81
2021/12/13 00:21:07;;;;;;;108.88;101.07;;;;;;;0.90;100.00;101346.28;4995812;28;20042;-81
2021/12/13 00:23:42;;;;;;;106.72;98.85;;;;;;;0.97;100.00;101351.88;4994216;28;20046;-79
2021/12/13 00:26:20;;;;;;;99.13;91.88;;;;;;;0.81;100.00;101362.75;4991145;28;20090;-82
2021/12/13 00:28:48;;;;;;;97.93;90.68;;;;;;;0.68;100.00;101365.53;4984293;28;20054;-80
2021/12/13 00:31:37;;;;;;;103.63;96.13;;;;;;;0.81;100.00;101360.13;4991877;28;20054;-80
2021/12/13 00:34:30;;;;;;;101.95;93.95;;;;;;;0.82;100.00;101360.97;4986185;28;20124;-80
2021/12/13 00:36:59;;;;;;;;;;;;;;;0.93;100.00;101362.69;4992645;28;20050;-79
2021/12/13 00:39:30;;;;;;;88.35;81.57;;;;;;;0.90;100.00;101371.63;4991263;28;19926;-80
2021/12/13 00:42:03;;;;;;;92.57;85.35;;;;;;;0.78;100.00;101370.84;4992558;28;20125;-80
2021/12/13 00:44:35;;;;;;;101.57;93.82;;;;;;;0.96;100.00;101373.72;4984093;28;20050;-81
2021/12/13 00:47:06;;;;;;;107.28;99.43;;;;;;;0.96;100.00;101371.09;4987595;28;20073;-83
2021/12/13 00:49:33;;;;;;;104.35;96.57;;;;;;;1.06;100.00;101373.78;4993996;28;20096;-81
2021/12/13 00:52:02;;;;;;;107.63;99.57;;;;;;;1.01;100.00;101366.34;4999361;28;20050;-80
2021/12/13 00:54:33;;;;;;;108.57;100.97;;;;;;;0.91;100.00;101368.06;4986928;28;20057;-79
2021/12/13 00:57:33;;;;;;;110.70;103.03;;;;;;;1.16;100.00;101366.03;4993458;28;20561;-80
2021/12/13 01:00:08;;;;;;;89.45;82.57;;;;;;;1.15;100.00;101367.81;4991494;28;20137;-83
2021/12/13 01:02:40;;;;;;;92.22;85.32;;;;;;;1.13;100.00;101373.16;4990679;28;20051;-81
2021/12/13 01:05:10;;;;;;;91.65;84.85;;;;;;;1.05;100.00;101362.50;4992236;28;20459;-83
2021/12/13 01:08:19;;;;;;;95.18;88.45;;;;;;;1.17;100.00;101370.28;4998747;28;20450;-81
2021/12/13 01:11:15;;;;;;;99.68;92.32;;;;;;;1.23;100.00;101348.84;4974041;28;20046;-83
2021/12/13 01:13:59;;;;;;;97.35;90.22;;;;;;;1.16;100.00;101353.75;4989674;28;20054;-80
2021/12/13 01:16:47;;;;;;;96.43;89.15;;;;;;;1.05;100.00;101348.59;4989974;28;20051;-83
2021/12/13 01:19:32;;;;;;;105.85;98.15;;;;;;;1.12;100.00;101353.19;4990143;28;20055;-79
2021/12/13 01:22:24;;;;;;;100.75;93.57;;;;;;;1.05;100.00;101357.25;4996439;28;20113;-83
2021/12/13 01:25:16;;;;;;;86.22;79.53;;;;;;;1.11;100.00;101355.94;4992926;28;20057;-81
2021/12/13 01:27:49;;;;;;;90.60;83.45;;;;;;;1.04;100.00;101353.00;4989939;28;20450;-81
2021/12/13 01:30:22;;;;;;;82.75;76.05;;;;;;;0.86;100.00;101352.75;4990682;28;20059;-82
2021/12/13 01:32:53;;;;;;;96.60;89.13;;;;;;;1.01;100.00;101352.44;4991945;28;20050;-81
2021/12/13 01:35:22;;;;;;;93.53;86.30;;;;;;;1.03;100.00;101346.13;4987177;28;20117;-80
2021/12/13 01:37:53;;;;;;;106.68;98.57;;;;;;;0.99;100.00;101357.78;4988614;28;20061;-82
2021/12/13 01:40:23;;;;;;;109.28;101.07;;;;;;;1.16;100.00;101360.78;4990565;28;20070;-80
2021/12/13 01:43:00;;;;;;;105.75;97.78;;;;;;;1.15;100.00;101367.81;4995225;28;20081;-80
2021/12/13 01:45:34;;;;;;;105.40;97.40;;;;;;;1.17;100.00;101371.09;4994360;28;20116;-80
2021/12/13 01:48:02;;;;;;;104.93;96.78;;;;;;;1.23;100.00;101372.38;4988742;28;20051;-80
2021/12/13 01:50:41;;;;;;;93.47;85.68;;;;;;;1.12;100.00;101366.28;4992997;28;20089;-82
2021/12/13 01:53:09;;;;;;;92.35;85.05;;;;;;;1.23;100.00;101364.53;4993162;28;20078;-83
2021/12/13 01:55:39;;;;;;;86.00;79.30;;;;;;;1.06;100.00;101361.56;4990961;28;20046;-80
2021/12/13 01:58:26;;;;;;;95.22;88.03;;;;;;;1.08;100.00;101353.56;4989312;28;20540;-80
2021/12/13 02:01:11;;;;;;;96.25;88.65;;;;;;;0.98;100.00;101348.28;4986261;28;20045;-80
2021/12/13 02:03:52;;;;;;;98.97;91.55;;;;;;;0.89;100.00;101349.03;4994280;28;20125;-82
2021/12/13 02:06:30;;;;;;;96.43;89.40;;;;;;;0.99;100.00;101343.88;4987863;28;20114;-81
2021/12/13 02:09:01;;;;;;;101.13;93.15;;;;;;;1.04;100.00;101354.78;4984532;28;20062;-83
2021/12/13 02:11:31;;;;;;;104.22;95.55;;;;;;;1.02;100.00;101347.06;4988053;28;20055;-80
2021/12/13 02:14:09;;;;;;;95.38;87.88;;;;;;;1.23;100.00;101349.66;4990008;28;20450;-82
2021/12/13 02:17:01;;;;;;;103.93;96.45;;;;;;;1.24;100.00;101353.94;4987367;28;20065;-80
2021/12/13 02:19:40;;;;;;;88.57;81.68;;;;;;;1.25;100.00;101362.63;4989573;28;20053;-79
2021/12/13 02:22:30;;;;;;;86.22;79.43;;;;;;;1.26;100.00;101366.91;4980162;28;20055;-76
2021/12/13 02:25:04;;;;;;;92.78;85.82;;;;;;;1.22;100.00;101361.09;4980365;28;20189;-81
2021/12/13 02:27:35;;;;;;;100.93;93.65;;;;;;;1.05;100.00;101372.13;4986925;28;20482;-81
2021/12/13 02:30:13;;;;;;;98.80;91.78;;;;;;;1.06;100.00;101369.41;4994555;28;20046;-83
2021/12/13 02:32:41;;;;;;;99.35;92.15;;;;;;;1.05;100.00;101367.72;4986347;28;20050;-79
2021/12/13 02:35:10;;;;;;;103.03;95.35;;;;;;;1.14;100.00;101366.97;4990201;28;20120;-81
2021/12/13 02:37:40;;;;;;;96.80;89.82;;;;;;;1.17;100.00;101370.28;4981707;28;20050;-78
2021/12/13 02:40:14;;;;;;;97.47;90.25;;;;;;;1.17;100.00;101373.72;4989029;28;20065;-80
2021/12/13 02:42:41;;;;;;;99.75;92.30;;;;;;;1.25;100.00;101373.91;4987312;28;20043;-78
2021/12/13 02:45:14;;;;;;;84.43;77.72;;;;;;;1.36;100.00;101378.22;4990774;28;20054;-80
2021/12/13 02:47:48;;;;;;;81.13;74.82;;;;;;;1.34;100.00;101380.19;4992224;28;20053;-79
2021/12/13 02:50:22;;;;;;;82.10;75.78;;;;;;;1.12;100.00;101371.50;4988897;28;20082;-79
2021/12/13 02:52:51;;;;;;;84.82;78.53;;;;;;;1.12;100.00;101368.03;4984357;28;20452;-81
2021/12/13 02:55:21;;;;;;;90.53;83.93;;;;;;;1.12;100.00;101349.72;4993111;28;20067;-81
2021/12/13 02:57:52;;;;;;;89.70;83.30;;;;;;;1.17;100.00;101352.78;4988683;28;20054;-80
2021/12/13 03:03:00;;;;;;;86.40;80.18;;;;;;;1.30;100.00;101347.34;3745942;26;20132;-80
2021/12/13 03:05:30;;;;;;;;;;;;;;;1.33;100.00;101347.09;5015872;28;20053;-78
2021/12/13 03:08:04;;;;;;;91.07;84.68;;;;;;;1.39;100.00;101346.56;5012786;28;19929;-80
2021/12/13 03:10:38;;;;;;;79.53;73.53;;;;;;;1.32;100.00;101348.06;5007247;28;20045;-80
2021/12/13 03:13:05;;;;;;;76.15;70.35;;;;;;;1.43;100.00;101349.78;5009089;28;20378;-81
2021/12/13 03:15:37;;;;;;;79.80;73.72;;;;;;;1.32;100.00;101355.91;5002891;28;20433;-79
2021/12/13 03:18:12;;;;;;;86.85;80.45;;;;;;;1.33;100.00;101358.41;5004723;28;20054;-81
2021/12/13 03:21:05;;;;;;;78.90;73.10;;;;;;;1.31;100.00;101357.69;5004475;28;20454;-78
2021/12/13 03:23:49;;;;;;;84.75;78.63;;;;;;;1.22;100.00;101368.13;4963944;28;20098;-78
2021/12/13 03:26:50;;;;;;;80.20;74.65;;;;;;;1.23;100.00;101367.97;5007806;28;20057;-80
2021/12/13 03:29:19;;;;;;;78.55;72.60;;;;;;;1.31;100.00;101369.97;5000260;28;20107;-79
2021/12/13 03:31:52;;;;;;;82.75;76.85;;;;;;;1.47;100.00;101370.31;5006192;28;20046;-81
2021/12/13 03:34:23;;;;;;;78.07;72.07;;;;;;;1.29;100.00;101366.63;5005150;28;20116;-80
2021/12/13 03:36:58;;;;;;;79.35;73.60;;;;;;;1.28;100.00;101368.44;5005326;28;20141;-80
2021/12/13 03:39:31;;;;;;;77.15;71.55;;;;;;;1.19;100.00;101378.84;5010814;28;20112;-79
2021/12/13 03:42:01;;;;;;;77.40;71.90;;;;;;;1.86;100.00;101377.50;5007586;28;20085;-81
2021/12/13 03:44:31;;;;;;;88.75;82.90;;;;;;;1.32;100.00;101382.09;5010604;28;20045;-80
2021/12/13 03:47:08;;;;;;;91.53;85.60;;;;;;;1.46;100.00;101394.84;5004966;28;20050;-79
2021/12/13 03:49:41;;;;;;;82.75;77.00;;;;;;;1.48;100.00;101387.66;5007037;28;20049;-80
2021/12/13 03:52:11;;;;;;;79.35;73.53;;;;;;;1.38;100.00;101394.66;5001676;28;20046;-79
2021/12/13 03:54:44;;;;;;;80.22;74.53;;;;;;;1.26;100.00;101391.28;5006734;28;20124;-81
2021/12/13 03:57:12;;;;;;;91.75;85.45;;;;;;;1.19;100.00;101399.78;5017457;28;20046;-81
2021/12/13 03:59:41;;;;;;;84.82;78.95;;;;;;;1.28;100.00;101397.22;5012420;28;20050;-82
2021/12/13 04:02:14;;;;;;;85.60;79.82;;;;;;;1.40;100.00;101405.00;5016862;28;20057;-79
2021/12/13 04:04:46;;;;;;;79.97;74.45;;;;;;;1.36;100.00;101405.25;5012175;28;20050;-80
2021/12/13 04:07:16;;;;;;;79.78;73.70;;;;;;;1.21;100.00;101403.09;5016404;28;20120;-78
2021/12/13 04:09:48;;;;;;;90.55;84.45;;;;;;;1.27;100.00;101400.81;5012913;28;20046;-78
2021/12/13 04:12:16;;;;;;;91.95;85.88;;;;;;;1.17;100.00;101399.91;5012709;28;20061;-79
2021/12/13 04:14:53;;;;;;;95.50;89.57;;;;;;;1.24;100.00;101406.28;5013224;28;20042;-78
2021/12/13 04:17:36;;;;;;;109.45;102.43;;;;;;;1.36;100.00;101400.03;5012243;28;20123;-80
2021/12/13 04:20:07;;;;;;;94.97;88.47;;;;;;;1.28;100.00;101404.25;5010533;28;20482;-79
2021/12/13 04:22:38;;;;;;;94.32;88.07;;;;;;;1.33;100.00;101418.59;5016079;28;20107;-81
2021/12/13 04:25:10;;;;;;;91.57;85.35;;;;;;;1.30;100.00;101410.16;5013892;28;20050;-80
2021/12/13 04:27:40;;;;;;;87.05;81.45;;;;;;;1.36;100.00;101420.13;5014942;28;20120;-79
2021/12/13 04:30:21;;;;;;;86.50;80.60;;;;;;;1.48;100.00;101413.84;5012448;28;20049;-79
2021/12/13 04:32:50;;;;;;;91.97;85.88;;;;;;;1.38;100.00;101419.03;5008951;28;20085;-79
2021/12/13 04:35:17;;;;;;;98.43;92.03;;;;;;;1.39;100.00;101422.47;4918105;28;20054;-78
2021/12/13 04:37:48;;;;;;;100.82;94.00;;;;;;;1.51;100.00;101420.63;5010118;28;20111;-77
2021/12/13 04:40:21;;;;;;;119.70;111.57;;;;;;;1.27;100.00;101416.50;5014753;28;20073;-77
2021/12/13 04:42:50;;;;;;;129.27;119.70;;;;;;;1.39;100.00;101422.47;5016942;28;20462;-79
2021/12/13 04:45:20;;;;;;;128.73;119.82;;;;;;;1.43;100.00;101423.91;5016046;28;20042;-79
2021/12/13 04:47:54;;;;;;;126.15;117.15;;;;;;;1.48;100.00;101432.16;5015998;28;20053;-78
2021/12/13 04:50:25;;;;;;;123.18;114.78;;;;;;;1.30;100.00;101425.88;5014328;28;20120;-79
2021/12/13 04:52:53;;;;;;;120.15;111.75;;;;;;;1.75;100.00;101430.81;5013024;28;20559;-77
2021/12/13 04:55:25;;;;;;;99.60;92.53;;;;;;;1.48;100.00;101429.56;5008225;28;20045;-74
2021/12/13 04:57:54;;;;;;;101.20;93.60;;;;;;;1.58;100.00;101433.06;5012460;28;20046;-79
2021/12/13 05:00:25;;;;;;;102.60;94.80;;;;;;;1.58;100.00;101437.50;5012123;28;20433;-75
2021/12/13 05:02:56;;;;;;;105.80;98.65;;;;;;;1.59;100.00;101437.34;5010517;28;20050;-77
2021/12/13 05:05:24;;;;;;;96.40;89.88;;;;;;;1.56;100.00;101440.22;5013251;28;20053;-79
2021/12/13 05:07:53;;;;;;;91.00;84.90;;;;;;;1.53;100.00;101437.84;5012304;28;20119;-78
2021/12/13 05:10:25;;;;;;;94.20;87.90;;;;;;;1.47;100.00;101432.31;5007074;28;20480;-77
2021/12/13 05:13:01;;;;;;;89.28;83.18;;;;;;;1.50;100.00;101427.66;5012062;28;20082;-75
2021/12/13 05:15:31;;;;;;;95.47;89.10;;;;;;;1.47;100.00;101440.16;5008589;28;20053;-75
2021/12/13 05:17:59;;;;;;;90.63;84.57;;;;;;;1.55;100.00;101443.81;5011582;28;20085;-75
2021/12/13 05:20:30;;;;;;;87.95;82.03;;;;;;;1.55;100.00;101446.44;5013198;28;20061;-78
2021/12/13 05:23:01;;;;;;;88.60;82.55;;;;;;;1.67;100.00;101444.56;5012274;28;20053;-79
2021/12/13 05:25:34;;;;;;;83.97;78.13;;;;;;;1.70;100.00;101446.91;5006782;28;20049;-77
2021/12/13 05:28:06;;;;;;;81.85;76.30;;;;;;;1.51;100.00;101433.72;5013418;28;20115;-75
2021/12/13 05:30:35;;;;;;;80.25;74.47;;;;;;;1.46;100.00;101444.59;5011662;28;20053;-75
2021/12/13 05:33:06;;;;;;;82.32;76.72;;;;;;;1.47;100.00;101442.78;5010732;28;20050;-77
2021/12/13 05:35:37;;;;;;;79.43;74.03;;;;;;;1.56;100.00;101448.06;5007588;28;20116;-76
2021/12/13 05:38:07;;;;;;;79.28;73.68;;;;;;;1.52;100.00;101446.69;5011394;28;20077;-78
2021/12/13 05:40:39;;;;;;;78.05;72.72;;;;;;;1.51;100.00;101447.66;5011610;28;20506;-81
2021/12/13 05:43:18;;;;;;;84.38;78.55;;;;;;;1.57;100.00;101447.13;5011670;28;20053;-75
2021/12/13 05:45:50;;;;;;;83.35;77.78;;;;;;;1.53;100.00;101439.66;5006094;28;20054;-76
2021/12/13 05:48:18;;;;;;;;;;;;;;;1.58;100.00;101440.09;5010737;28;20115;-76
2021/12/13 05:50:48;;;;;;;84.93;78.95;;;;;;;1.63;100.00;101445.75;5008593;28;19925;-76
2021/12/13 05:53:25;;;;;;;76.95;71.60;;;;;;;1.62;100.00;101448.53;5011567;28;20454;-76
2021/12/13 05:56:07;;;;;;;72.80;67.82;;;;;;;1.41;100.00;101448.53;5005151;28;20057;-75
2021/12/13 05:58:40;;;;;;;82.15;76.63;;;;;;;1.46;100.00;101451.63;5005102;28;20077;-76
2021/12/13 06:01:12;;;;;;;83.53;78.22;;;;;;;1.49;100.00;101449.56;5006563;28;20054;-78
2021/12/13 06:03:43;;;;;;;85.75;80.15;;;;;;;1.55;100.00;101443.81;5002684;28;20049;-78
2021/12/13 06:06:13;;;;;;;82.43;77.30;;;;;;;1.62;100.00;101457.22;5008008;28;20116;-76
2021/12/13 06:08:44;;;;;;;86.07;80.55;;;;;;;1.74;100.00;101458.78;5004356;28;20379;-76
2021/12/13 06:11:15;;;;;;;105.88;99.75;;;;;;;1.72;100.00;101454.63;5010800;28;20049;-80
2021/12/13 06:14:02;;;;;;;92.50;87.20;;;;;;;1.66;100.00;101463.84;5011020;28;20054;-76
2021/12/13 06:16:41;;;;;;;101.15;95.25;;;;;;;1.63;100.00;101465.88;5011073;28;20453;-76
2021/12/13 06:19:11;;;;;;;97.50;89.82;;;;;;;1.68;100.00;101463.72;5010028;28;20483;-76
2021/12/13 06:21:56;;;;;;;92.45;85.45;;;;;;;1.53;100.00;101468.47;5012050;28;20115;-75
2021/12/13 06:24:30;;;;;;;95.25;87.78;;;;;;;1.62;100.00;101461.63;5010809;28;20054;-76
2021/12/13 06:27:13;;;;;;;91.63;84.35;;;;;;;1.62;100.00;101470.31;5011083;28;20049;-79
2021/12/13 06:30:06;;;;;;;101.95;93.72;;;;;;;1.60;100.00;101470.44;5010238;28;20127;-75
2021/12/13 06:32:39;;;;;;;91.47;83.88;;;;;;;1.57;100.00;101464.59;5003858;28;20050;-78
2021/12/13 06:35:40;;;;;;;93.97;86.10;;;;;;;1.61;100.00;101468.66;5001535;28;20186;-78
2021/12/13 06:38:28;;;;;;;97.93;89.68;;;;;;;1.52;100.00;101483.34;5006486;28;20061;-76
2021/12/13 06:40:59;;;;;;;97.13;89.28;;;;;;;1.64;100.00;101478.88;5004947;28;20123;-78
2021/12/13 06:43:30;;;;;;;88.68;80.55;;;;;;;1.64;100.00;101478.88;5010733;28;20046;-76
2021/12/13 06:45:58;;;;;;;91.20;82.10;;;;;;;1.66;100.00;101491.81;5002695;28;20057;-77
2021/12/13 06:48:34;;;;;;;85.60;77.40;;;;;;;1.57;100.00;101491.66;5010554;28;20108;-79
2021/12/13 06:51:02;;;;;;;86.63;78.45;;;;;;;1.61;100.00;101497.47;5009400;28;20525;-77
2021/12/13 06:53:29;;;;;;;85.80;77.40;;;;;;;1.53;100.00;101492.84;5007478;28;20100;-78
2021/12/13 06:55:55;;;;;;;80.25;72.05;;;;;;;1.67;100.00;101498.75;5004812;28;20046;-76
2021/12/13 06:58:28;;;;;;;79.40;71.07;;;;;;;2.01;100.00;101501.94;5010617;28;20474;-78
2021/12/13 07:00:58;;;;;;;;;;;;;;;1.55;100.00;101501.41;5010955;28;20045;-75
2021/12/13 07:03:32;;;;;;;92.80;84.22;;;;;;;1.63;100.00;101510.41;5009961;28;19996;-79
2021/12/13 07:06:01;;;;;;;81.40;73.57;;;;;;;1.63;100.00;101502.56;5010307;28;20046;-78
2021/12/13 07:08:31;;;;;;;93.25;84.85;;;;;;;1.66;100.00;101516.22;4999282;28;20068;-77
2021/12/13 07:11:02;;;;;;;78.90;71.90;;;;;;;1.62;100.00;101512.19;5010700;28;20057;-79
2021/12/13 07:13:32;;;;;;;88.18;80.38;;;;;;;1.71;100.00;101518.47;5011834;28;20057;-75
2021/12/13 07:16:04;;;;;;;85.10;77.32;;;;;;;1.87;100.00;101528.47;5011348;28;20477;-76
2021/12/13 07:18:40;;;;;;;85.15;77.80;;;;;;;1.75;100.00;101540.81;5010204;28;20403;-78
2021/12/13 07:21:14;;;;;;;80.28;72.38;;;;;;;1.79;100.00;101537.81;5010292;28;20116;-76
2021/12/13 07:24:05;;;;;;;78.82;70.97;;;;;;;1.90;100.00;101542.13;5011754;28;20395;-78
2021/12/13 07:26:35;;;;;;;79.60;72.07;;;;;;;1.78;100.00;101540.56;5014316;28;20112;-77
2021/12/13 07:29:06;;;;;;;87.50;79.20;;;;;;;1.76;100.00;101542.50;5013576;28;20469;-76
2021/12/13 07:31:35;;;;;;;91.47;83.07;;;;;;;1.69;100.00;101544.78;5012364;28;20050;-78
2021/12/13 07:34:16;;;;;;;89.22;80.65;;;;;;;1.84;100.00;101540.03;5012764;28;20041;-78
2021/12/13 07:36:43;;;;;;;88.60;80.15;;;;;;;1.81;100.00;101545.53;5008352;28;20054;-75
2021/12/13 07:39:15;;;;;;;91.43;82.68;;;;;;;1.79;100.00;101550.91;5012165;28;20042;-75
2021/12/13 07:41:50;;;;;;;90.17;81.77;;;;;;;1.99;100.00;101548.41;5009558;28;20486;-76
2021/12/13 07:44:38;;;;;;;86.40;78.97;;;;;;;1.71;100.00;101549.88;5008492;28;20045;-76
2021/12/13 07:47:12;;;;;;;99.75;90.95;;;;;;;2.45;100.00;101553.19;5007458;28;20042;-78
2021/12/13 07:49:43;;;;;;;103.05;94.32;;;;;;;1.96;100.00;101546.03;5013692;28;20049;-79
2021/12/13 07:52:22;;;;;;;104.65;95.75;;;;;;;1.95;100.00;101553.06;5006141;28;20072;-79
2021/12/13 07:54:49;;;;;;;104.10;95.25;;;;;;;1.92;100.00;101544.66;5007778;28;20458;-79
2021/12/13 07:57:21;;;;;;;98.45;89.78;;;;;;;1.97;100.00;101548.53;5011433;28;20112;-78
2021/12/13 07:59:49;;;;;;;;;;;;;;;1.94;100.00;101555.84;5004788;28;20058;-79
2021/12/13 08:02:25;;;;;;;92.32;83.85;;;;;;;2.01;100.00;101567.44;5010276;28;19925;-79
2021/12/13 08:04:55;;;;;;;97.55;88.85;;;;;;;2.14;100.00;101562.81;5002592;28;20224;-79
2021/12/13 08:07:25;;;;;;;82.07;74.22;;;;;;;2.79;100.00;101563.38;4998009;28;20050;-78
2021/12/13 08:09:55;;;;;;;79.38;71.75;;;;;;;2.29;100.00;101572.00;5008805;28;20104;-79
2021/12/13 08:12:27;;;;;;;86.15;78.28;;;;;;;2.16;100.00;101568.78;5015840;28;20120;-80
2021/12/13 08:14:57;;;;;;;100.68;92.35;;;;;;;2.22;100.00;101562.19;5011009;28;20043;-78
2021/12/13 08:17:31;;;;;;;95.20;86.97;;;;;;;2.31;100.00;101561.41;5008530;28;20503;-78
2021/12/13 08:20:00;;;;;;;100.50;92.13;;;;;;;2.38;100.00;101564.31;5001707;28;20046;-80
2021/12/13 08:22:30;;;;;;;96.55;88.50;;;;;;;2.40;100.00;101578.97;5004682;28;20066;-79
2021/12/13 08:24:59;;;;;;;95.63;87.63;;;;;;;2.39;100.00;101576.47;5011152;28;20129;-79
2021/12/13 08:27:30;;;;;;;92.63;84.63;;;;;;;2.35;100.00;101575.06;5005057;28;20061;-78
2021/12/13 08:30:09;;;;;;;104.95;95.13;;;;;;;2.76;100.00;101579.38;5013494;28;20054;-78
2021/12/13 08:32:37;;;;;;;93.28;84.93;;;;;;;2.61;100.00;101589.41;5007791;28;20120;-79
2021/12/13 08:35:07;;;;;;;85.65;77.72;;;;;;;2.50;100.00;101584.25;5013875;28;20474;-78
2021/12/13 08:37:39;;;;;;;103.93;86.38;;;;;;;2.48;100.00;101592.25;5014289;28;20392;-79
2021/12/13 08:40:11;;;;;;;157.95;105.47;;;;;;;2.22;100.00;101591.03;5010971;28;20050;-79
2021/12/13 08:42:41;;;;;;;106.65;95.07;;;;;;;2.27;100.00;101586.22;5014557;28;20050;-79
2021/12/13 08:45:17;;;;;;;82.38;74.55;;;;;;;2.61;100.00;101593.81;5008807;28;20463;-78
2021/12/13 08:47:50;;;;;;;92.28;84.47;;;;;;;2.23;100.00;101588.25;5013773;28;20416;-79
2021/12/13 08:50:27;;;;;;;89.82;81.93;;;;;;;2.16;100.00;101591.53;5015046;28;20049;-77
2021/12/13 08:52:58;;;;;;;93.53;85.15;;;;;;;2.24;100.00;101584.69;5010796;28;20471;-80
2021/12/13 08:55:30;;;;;;;87.47;79.38;;;;;;;2.60;100.00;101590.34;5009846;28;20050;-79
2021/12/13 08:58:11;;;;;;;97.32;89.10;;;;;;;2.34;100.00;101592.59;5009808;28;20054;-81
2021/12/13 09:00:55;;;;;;;100.20;91.70;;;;;;;2.44;100.00;101590.84;5013133;28;20050;-79
2021/12/13 09:03:29;;;;;;;94.57;86.32;;;;;;;2.23;100.00;101585.63;5011476;28;20062;-80
2021/12/13 09:06:06;;;;;;;121.25;111.25;;;;;;;2.49;100.00;101583.41;5013988;28;20057;-79
2021/12/13 09:08:36;;;;;;;112.85;103.55;;;;;;;2.43;100.00;101578.69;5013700;28;20474;-79
2021/12/13 09:11:16;;;;;;;116.90;107.40;;;;;;;2.63;100.00;101577.00;5013837;28;20540;-79
2021/12/13 09:13:46;;;;;;;114.13;105.10;;;;;;;2.27;100.00;101576.56;5014208;28;20054;-78
2021/12/13 09:16:18;;;;;;;108.25;99.25;;;;;;;2.54;100.00;101575.13;5013567;28;20085;-79
2021/12/13 09:18:46;;;;;;;101.97;93.30;;;;;;;2.51;100.00;101578.03;5007659;28;20105;-79
2021/12/13 09:21:20;;;;;;;114.45;104.65;;;;;;;3.00;100.00;101571.16;5014849;28;20104;-79
2021/12/13 09:23:50;;;;;;;109.50;101.00;;;;;;;2.44;100.00;101569.84;5013580;28;20051;-79
2021/12/13 09:26:22;;;;;;;96.32;87.93;;;;;;;2.44;100.00;101574.28;5013419;28;20120;-80
2021/12/13 09:28:52;;;;;;;91.38;83.25;;;;;;;2.40;100.00;101568.47;5014538;28;20046;-79
2021/12/13 09:31:23;;;;;;;106.35;97.68;;;;;;;2.48;100.00;101562.56;5006485;28;20116;-80
2021/12/13 09:33:54;;;;;;;109.82;101.15;;;;;;;2.19;100.00;101562.44;5006167;28;20090;-80
2021/12/13 09:36:23;;;;;;;110.18;101.40;;;;;;;2.29;100.00;101572.00;5012889;28;20049;-79
2021/12/13 09:39:00;;;;;;;98.18;90.18;;;;;;;3.00;100.00;101568.53;5010208;28;20127;-80
2021/12/13 09:41:33;;;;;;;83.40;76.32;;;;;;;3.60;100.00;101566.63;5013381;28;20461;-80
2021/12/13 09:44:07;;;;;;;86.45;79.03;;;;;;;2.70;100.00;101567.63;5013013;28;20680;-79
2021/12/13 09:46:42;;;;;;;85.50;78.05;;;;;;;2.62;100.00;101570.06;5012512;28;20061;-80
2021/12/13 09:49:14;;;;;;;84.72;77.35;;;;;;;2.62;100.00;101577.94;5004506;28;20049;-79
2021/12/13 09:51:49;;;;;;;82.60;74.45;;;;;;;2.50;100.00;101587.69;5014320;28;20433;-81
2021/12/13 09:54:18;;;;;;;81.25;73.43;;;;;;;2.56;100.00;101580.25;5011899;28;20050;-80
2021/12/13 09:56:49;;;;;;;76.80;69.40;;;;;;;2.53;100.00;101576.94;5008281;28;20077;-80
2021/12/13 09:59:21;;;;;;;79.95;73.05;;;;;;;2.48;100.00;101573.03;5002414;28;20048;-80
2021/12/13 10:01:49;;;;;;;86.57;79.28;;;;;;;2.78;100.00;101573.97;5009026;28;20465;-80
2021/12/13 10:04:21;;;;;;;90.45;82.55;;;;;;;2.49;100.00;101577.34;5010125;28;20469;-80
2021/12/13 10:06:51;;;;;;;86.60;78.50;;;;;;;2.70;100.00;101566.78;5014406;28;20050;-79
2021/12/13 10:09:21;;;;;;;91.35;81.88;;;;;;;2.83;100.00;101564.75;5012700;28;20050;-81
2021/12/13 10:11:52;;;;;;;84.07;76.68;;;;;;;3.73;100.00;101561.06;5007605;28;20041;-80
2021/12/13 10:14:24;;;;;;;81.07;74.22;;;;;;;2.58;100.00;101554.75;5005056;28;20505;-80
2021/12/13 10:16:55;;;;;;;80.63;73.43;;;;;;;2.65;100.00;101550.63;5005509;28;20053;-80
2021/12/13 10:19:29;;;;;;;82.07;74.38;;;;;;;2.84;100.00;101550.66;5009731;28;20053;-80
2021/12/13 10:21:56;;;;;;;75.63;68.13;;;;;;;2.38;100.00;101554.66;5010675;28;20058;-79
2021/12/13 10:24:27;;;;;;;75.30;67.90;;;;;;;2.63;100.00;101556.00;5009798;28;20100;-80
2021/12/13 10:26:56;;;;;;;80.57;73.57;;;;;;;2.58;100.00;101552.94;5011829;28;20445;-80
2021/12/13 10:29:24;;;;;;;82.82;75.43;;;;;;;2.62;100.00;101543.00;4997604;28;20112;-81
2021/12/13 10:31:57;;;;;;;95.50;87.20;;;;;;;2.83;100.00;101541.13;5007705;28;20064;-81
2021/12/13 10:34:29;;;;;;;108.68;99.07;;;;;;;3.72;100.00;101542.78;5008301;28;20474;-80
2021/12/13 10:37:00;;;;;;;94.63;86.37;;;;;;;3.24;100.00;101541.88;5013189;28;20058;-80
2021/12/13 10:39:30;;;;;;;88.90;80.68;;;;;;;4.20;100.00;101547.94;5012900;28;20367;-80
2021/12/13 10:42:00;;;;;;;96.82;88.72;;;;;;;3.00;100.00;101536.19;5011093;28;20548;-79
2021/12/13 10:44:30;;;;;;;97.47;88.80;;;;;;;2.98;100.00;101531.06;5003153;28;20050;-80
2021/12/13 10:47:03;;;;;;;89.25;81.88;;;;;;;3.42;100.00;101536.78;5012232;28;20064;-79
2021/12/13 10:49:34;;;;;;;82.15;75.43;;;;;;;3.28;100.00;101531.94;5012600;28;20116;-79
2021/12/13 10:52:07;;;;;;;83.72;76.43;;;;;;;2.97;100.00;101527.63;5013557;28;20054;-80
2021/12/13 10:54:38;;;;;;;85.38;77.97;;;;;;;3.18;100.00;101538.00;5012960;28;20159;-80
2021/12/13 10:57:13;;;;;;;92.60;84.18;;;;;;;3.02;100.00;101537.69;5012246;28;20526;-80
2021/12/13 10:59:40;;;;;;;83.10;75.60;;;;;;;2.81;100.00;101545.66;5014882;28;20045;-79
2021/12/13 11:02:11;;;;;;;81.30;73.78;;;;;;;2.77;100.00;101540.84;5016066;28;20387;-79
2021/12/13 11:04:43;;;;;;;78.47;71.13;;;;;;;2.84;100.00;101532.28;5015902;28;20050;-79
2021/12/13 11:07:11;;;;;;;85.00;77.35;;;;;;;2.80;100.00;101536.16;5016094;28;20529;-79
2021/12/13 11:09:41;;;;;;;83.10;75.85;;;;;;;2.71;100.00;101529.91;5017052;28;20486;-79
2021/12/13 11:12:13;;;;;;;81.22;74.15;;;;;;;2.75;100.00;101536.56;5014482;28;20137;-79
2021/12/13 11:14:43;;;;;;;85.85;78.28;;;;;;;2.84;100.00;101540.16;5006592;28;20101;-79
2021/12/13 11:17:13;;;;;;;81.60;74.28;;;;;;;2.97;100.00;101517.13;5016281;28;20049;-79
2021/12/13 11:19:47;;;;;;;81.45;74.38;;;;;;;2.75;100.00;101522.59;5011694;28;20457;-78
2021/12/13 11:22:18;;;;;;;81.40;74.15;;;;;;;2.97;100.00;101518.94;5016515;28;20073;-78
2021/12/13 11:24:48;;;;;;;84.60;76.93;;;;;;;2.87;100.00;101518.88;5016902;28;20050;-80
2021/12/13 11:27:18;;;;;;;75.32;68.13;;;;;;;2.82;100.00;101520.28;5016200;28;20053;-79
2021/12/13 11:29:47;;;;;;;80.78;73.38;;;;;;;2.91;100.00;101520.28;5015625;28;20046;-79
2021/12/13 11:32:43;;;;;;;88.00;80.00;;;;;;;2.94;100.00;101524.44;5015475;28;20434;-79
2021/12/13 11:35:57;;;;;;;86.50;78.50;;;;;;;2.82;100.00;101528.97;5008187;28;20050;-79
2021/12/13 11:38:43;;;;;;;86.90;79.05;;;;;;;3.00;100.00;101531.78;4991368;28;20478;-81
2021/12/13 11:41:36;;;;;;;82.72;75.20;;;;;;;2.89;100.00;101527.47;5015606;28;20449;-80